createdAt,value
2017-11-03T00:02:02.078Z,10.00
2017-11-03T00:04:30.335Z,10.00
2017-11-03T00:06:57.808Z,10.00
2017-11-03T00:09:25.296Z,10.00
2017-11-03T00:11:53.527Z,10.00
2017-11-03T00:14:20.991Z,10.00
2017-11-03T00:16:48.483Z,10.00
2017-11-03T00:19:16.719Z,9.90
2017-11-03T00:21:44.187Z,9.90
2017-11-03T00:24:13.183Z,9.90
2017-11-03T00:26:40.661Z,9.90
2017-11-03T00:29:08.914Z,9.90
2017-11-03T00:31:36.371Z,9.90
2017-11-03T00:34:04.636Z,9.90
2017-11-03T00:36:32.119Z,9.90
2017-11-03T00:38:59.573Z,9.90
2017-11-03T00:41:27.815Z,9.80
2017-11-03T00:43:55.276Z,9.90
2017-11-03T00:46:22.755Z,9.80
2017-11-03T00:48:50.223Z,9.80
2017-11-03T00:51:18.475Z,9.80
2017-11-03T00:53:45.935Z,9.70
2017-11-03T00:56:13.399Z,9.80
2017-11-03T00:58:40.883Z,9.80
2017-11-03T01:01:08.348Z,9.80
2017-11-03T01:03:35.844Z,9.80
2017-11-03T01:06:03.326Z,9.80
2017-11-03T01:08:31.555Z,9.70
2017-11-03T01:10:59.036Z,9.70
2017-11-03T01:13:26.516Z,9.70
2017-11-03T01:15:53.975Z,9.60
2017-11-03T01:18:22.231Z,9.60
2017-11-03T01:20:49.704Z,9.50
2017-11-03T01:23:17.192Z,9.50
2017-11-03T01:25:44.655Z,9.50
2017-11-03T01:28:12.143Z,9.50
2017-11-03T01:30:39.620Z,9.50
2017-11-03T01:33:07.084Z,9.40
2017-11-03T01:35:34.589Z,9.40
2017-11-03T01:38:02.048Z,9.40
2017-11-03T01:40:29.507Z,9.40
2017-11-03T01:42:56.987Z,9.40
2017-11-03T01:45:24.455Z,9.50
2017-11-03T01:47:51.931Z,9.40
2017-11-03T01:50:20.167Z,9.40
2017-11-03T01:52:47.659Z,9.40
2017-11-03T01:55:15.882Z,9.30
2017-11-03T01:57:43.355Z,9.30
2017-11-03T02:00:10.837Z,9.30
2017-11-03T02:02:38.303Z,9.30
2017-11-03T02:05:05.780Z,9.30
2017-11-03T02:07:34.019Z,9.30
2017-11-03T02:10:01.491Z,9.30
2017-11-03T02:12:28.979Z,9.30
2017-11-03T02:14:56.440Z,9.30
2017-11-03T02:17:23.940Z,9.30
2017-11-03T02:19:51.407Z,9.20
2017-11-03T02:22:18.868Z,9.20
2017-11-03T02:24:46.356Z,9.20
2017-11-03T02:27:13.821Z,9.20
2017-11-03T02:29:41.315Z,9.20
2017-11-03T02:32:08.783Z,9.20
2017-11-03T02:34:36.247Z,9.30
2017-11-03T02:37:03.757Z,9.20
2017-11-03T02:39:31.211Z,9.30
2017-11-03T02:41:58.689Z,9.30
2017-11-03T02:44:26.155Z,9.30
2017-11-03T02:46:53.616Z,9.40
2017-11-03T02:49:21.095Z,9.40
2017-11-03T02:51:48.571Z,9.40
2017-11-03T02:54:16.817Z,9.40
2017-11-03T02:56:44.293Z,9.40
2017-11-03T02:59:12.515Z,9.30
2017-11-03T03:01:39.992Z,9.40
2017-11-03T03:04:07.475Z,9.30
2017-11-03T03:06:35.730Z,9.30
2017-11-03T03:09:03.214Z,9.30
2017-11-03T03:11:31.445Z,9.30
2017-11-03T03:13:58.925Z,9.30
2017-11-03T03:16:26.398Z,9.30
2017-11-03T03:18:54.641Z,9.30
2017-11-03T03:21:22.127Z,9.30
2017-11-03T03:23:50.365Z,9.40
2017-11-03T03:26:17.851Z,9.40
2017-11-03T03:28:45.317Z,9.40
2017-11-03T03:31:12.797Z,9.40
2017-11-03T03:33:40.267Z,9.40
2017-11-03T03:36:07.747Z,9.30
2017-11-03T03:38:35.242Z,9.30
2017-11-03T03:41:02.703Z,9.40
2017-11-03T03:43:30.928Z,9.30
2017-11-03T03:45:58.418Z,9.30
2017-11-03T03:48:25.899Z,9.30
2017-11-03T03:50:54.126Z,9.40
2017-11-03T03:53:21.608Z,9.30
2017-11-03T03:55:49.852Z,9.30
2017-11-03T03:58:17.332Z,9.30
2017-11-03T04:00:45.563Z,9.30
2017-11-03T04:03:13.028Z,9.30
2017-11-03T04:05:40.504Z,9.30
2017-11-03T04:08:07.968Z,9.40
2017-11-03T04:10:35.428Z,9.40
2017-11-03T04:13:03.671Z,9.30
2017-11-03T04:15:31.143Z,9.40
2017-11-03T04:17:58.603Z,9.30
2017-11-03T04:20:26.080Z,9.40
2017-11-03T04:22:54.323Z,9.30
2017-11-03T04:25:21.783Z,9.30
2017-11-03T04:27:49.320Z,9.30
2017-11-03T04:30:16.791Z,9.20
2017-11-03T04:32:44.247Z,9.20
2017-11-03T04:35:11.713Z,9.10
2017-11-03T04:37:39.327Z,9.10
2017-11-03T04:40:07.575Z,9.10
2017-11-03T04:42:35.052Z,9.10
2017-11-03T04:45:03.291Z,9.10
2017-11-03T04:47:30.756Z,9.20
2017-11-03T04:49:58.238Z,9.20
2017-11-03T04:52:26.469Z,9.20
2017-11-03T04:54:53.943Z,9.20
2017-11-03T04:57:22.919Z,9.20
2017-11-03T04:59:50.388Z,9.20
2017-11-03T05:02:17.863Z,9.30
2017-11-03T05:04:45.322Z,9.30
2017-11-03T05:07:13.567Z,9.30
2017-11-03T05:09:41.061Z,9.30
2017-11-03T05:12:09.288Z,9.30
2017-11-03T05:14:36.759Z,9.30
2017-11-03T05:17:04.219Z,9.40
2017-11-03T05:19:31.680Z,9.40
2017-11-03T05:21:59.155Z,9.40
2017-11-03T05:24:27.388Z,9.50
2017-11-03T05:26:54.835Z,9.50
2017-11-03T05:29:22.319Z,9.50
2017-11-03T05:31:49.784Z,9.50
2017-11-03T05:34:17.264Z,9.50
2017-11-03T05:36:45.492Z,9.60
2017-11-03T05:39:12.978Z,9.50
2017-11-03T05:41:41.210Z,9.60
2017-11-03T05:44:08.675Z,9.60
2017-11-03T05:46:36.154Z,9.60
2017-11-03T05:49:03.628Z,9.60
2017-11-03T05:51:31.887Z,9.60
2017-11-03T05:54:00.131Z,9.70
2017-11-03T05:56:27.603Z,9.70
2017-11-03T05:58:55.084Z,9.70
2017-11-03T06:01:22.558Z,9.70
2017-11-03T06:03:50.799Z,9.70
2017-11-03T06:06:18.279Z,9.70
2017-11-03T06:08:46.524Z,9.70
2017-11-03T06:11:13.992Z,9.70
2017-11-03T06:13:41.471Z,9.70
2017-11-03T06:16:09.707Z,9.70
2017-11-03T06:18:37.174Z,9.70
2017-11-03T06:21:04.655Z,9.70
2017-11-03T06:23:32.889Z,9.70
2017-11-03T06:26:00.372Z,9.60
2017-11-03T06:28:30.295Z,9.70
2017-11-03T06:30:57.775Z,9.70
2017-11-03T06:33:26.003Z,9.70
2017-11-03T06:35:53.483Z,9.70
2017-11-03T06:38:20.963Z,9.70
2017-11-03T06:40:50.185Z,9.70
2017-11-03T06:43:17.645Z,9.70
2017-11-03T06:45:45.128Z,9.80
2017-11-03T06:48:12.594Z,9.80
2017-11-03T06:50:40.075Z,9.80
2017-11-03T06:53:08.324Z,9.80
2017-11-03T06:55:35.827Z,9.80
2017-11-03T06:58:03.296Z,9.80
2017-11-03T07:00:30.753Z,9.90
2017-11-03T07:02:58.231Z,9.90
2017-11-03T07:05:25.703Z,9.90
2017-11-03T07:07:53.183Z,9.90
2017-11-03T07:10:20.659Z,9.90
2017-11-03T07:12:48.148Z,9.90
2017-11-03T07:15:15.636Z,9.90
2017-11-03T07:17:43.095Z,9.90
2017-11-03T07:20:10.596Z,9.90
2017-11-03T07:22:38.060Z,9.90
2017-11-03T07:25:05.527Z,9.90
2017-11-03T07:27:33.008Z,10.00
2017-11-03T07:30:00.498Z,10.00
2017-11-03T07:32:28.735Z,10.00
2017-11-03T07:34:56.208Z,10.00
2017-11-03T07:37:23.701Z,10.00
2017-11-03T07:39:51.955Z,10.10
2017-11-03T07:42:19.428Z,10.00
2017-11-03T07:44:47.676Z,10.10
2017-11-03T07:47:15.168Z,10.10
2017-11-03T07:49:42.651Z,10.10
2017-11-03T07:52:10.116Z,10.10
2017-11-03T07:54:37.612Z,10.10
2017-11-03T07:57:05.083Z,10.10
2017-11-03T07:59:33.316Z,10.20
2017-11-03T08:02:00.799Z,10.20
2017-11-03T08:04:28.260Z,10.30
2017-11-03T08:06:56.494Z,10.30
2017-11-03T08:09:23.994Z,10.20
2017-11-03T08:11:51.464Z,10.20
2017-11-03T08:14:19.724Z,10.20
2017-11-03T08:16:47.210Z,10.20
2017-11-03T08:19:14.688Z,10.20
2017-11-03T08:21:42.178Z,10.20
2017-11-03T08:24:09.675Z,10.20
2017-11-03T08:26:37.909Z,10.30
2017-11-03T08:29:06.155Z,10.30
2017-11-03T08:31:33.654Z,10.30
2017-11-03T08:34:01.120Z,10.40
2017-11-03T08:36:29.343Z,10.50
2017-11-03T08:38:56.836Z,10.50
2017-11-03T08:41:24.315Z,10.60
2017-11-03T08:43:52.569Z,10.80
2017-11-03T08:46:20.059Z,10.70
2017-11-03T08:48:47.558Z,10.70
2017-11-03T08:51:15.052Z,10.70
2017-11-03T08:53:43.272Z,10.90
2017-11-03T08:56:10.759Z,10.80
2017-11-03T08:58:38.261Z,10.90
2017-11-03T09:01:06.501Z,11.00
2017-11-03T09:03:33.999Z,11.00
2017-11-03T09:06:01.467Z,11.10
2017-11-03T09:08:28.951Z,11.10
2017-11-03T09:10:56.431Z,11.10
2017-11-03T09:13:23.924Z,11.10
2017-11-03T09:15:51.399Z,11.10
2017-11-03T09:18:18.867Z,11.10
2017-11-03T09:20:46.339Z,11.20
2017-11-03T09:23:13.819Z,11.30
2017-11-03T09:25:42.061Z,11.30
2017-11-03T09:28:09.542Z,11.30
2017-11-03T09:30:37.015Z,11.30
2017-11-03T09:33:05.270Z,11.50
2017-11-03T09:35:32.724Z,11.50
2017-11-03T09:38:01.711Z,11.50
2017-11-03T09:40:29.198Z,11.40
2017-11-03T09:42:57.452Z,11.60
2017-11-03T09:45:24.914Z,11.50
2017-11-03T09:47:52.395Z,11.60
2017-11-03T09:50:19.877Z,11.50
2017-11-03T09:52:47.363Z,11.50
2017-11-03T09:55:14.824Z,11.40
2017-11-03T09:57:42.302Z,11.50
2017-11-03T10:00:10.551Z,11.60
2017-11-03T10:02:38.027Z,11.70
2017-11-03T10:05:05.491Z,11.60
2017-11-03T10:07:32.968Z,11.70
2017-11-03T10:10:01.195Z,11.70
2017-11-03T10:12:29.030Z,11.70
2017-11-03T10:14:56.508Z,11.70
2017-11-03T10:17:23.992Z,11.80
2017-11-03T10:19:51.491Z,11.80
2017-11-03T10:22:18.961Z,11.90
2017-11-03T10:24:46.429Z,12.00
2017-11-03T10:27:13.919Z,12.20
2017-11-03T10:29:41.383Z,12.30
2017-11-03T10:32:08.862Z,13.10
2017-11-03T10:34:36.352Z,13.30
2017-11-03T10:37:03.811Z,13.20
2017-11-03T10:39:31.306Z,13.60
2017-11-03T10:41:58.770Z,13.90
2017-11-03T10:44:27.027Z,13.90
2017-11-03T10:46:54.495Z,13.90
2017-11-03T10:49:21.982Z,13.80
2017-11-03T10:51:50.237Z,13.50
2017-11-03T10:54:18.486Z,13.70
2017-11-03T10:56:45.968Z,13.60
2017-11-03T10:59:13.428Z,13.80
2017-11-03T11:01:41.675Z,15.50
2017-11-03T11:04:09.131Z,15.40
2017-11-03T11:06:36.600Z,16.00
2017-11-03T11:09:04.082Z,17.20
2017-11-03T11:11:31.551Z,17.90
2017-11-03T11:13:59.035Z,17.80
2017-11-03T11:16:26.576Z,16.90
2017-11-03T11:18:54.062Z,16.40
2017-11-03T11:21:21.528Z,16.90
2017-11-03T11:23:49.007Z,17.60
2017-11-03T11:26:16.517Z,18.40
2017-11-03T11:28:44.022Z,18.00
2017-11-03T11:31:12.283Z,15.70
2017-11-03T11:33:39.759Z,15.70
2017-11-03T11:36:07.988Z,15.10
2017-11-03T11:38:35.469Z,15.00
2017-11-03T11:41:03.725Z,14.70
2017-11-03T11:43:31.204Z,14.70
2017-11-03T11:45:58.676Z,14.90
2017-11-03T11:48:26.927Z,15.30
2017-11-03T11:50:54.400Z,15.30
2017-11-03T11:53:21.880Z,15.10
2017-11-03T11:55:49.343Z,14.90
2017-11-03T11:58:16.827Z,14.50
2017-11-03T12:00:44.316Z,14.20
2017-11-03T12:03:11.791Z,14.10
2017-11-03T12:05:40.023Z,14.10
2017-11-03T12:08:07.516Z,14.10
2017-11-03T12:10:35.011Z,14.10
2017-11-03T12:13:02.484Z,14.00
2017-11-03T12:15:29.967Z,13.90
2017-11-03T12:17:57.436Z,13.60
2017-11-03T12:20:24.931Z,13.60
2017-11-03T12:22:52.401Z,13.40
2017-11-03T12:25:19.885Z,13.40
2017-11-03T12:27:47.359Z,13.50
2017-11-03T12:30:14.839Z,13.50
2017-11-03T12:32:43.099Z,13.30
2017-11-03T12:35:10.555Z,13.30
2017-11-03T12:37:38.059Z,13.40
2017-11-03T12:40:05.525Z,13.50
2017-11-03T12:42:33.008Z,13.50
2017-11-03T12:45:00.483Z,13.50
2017-11-03T12:47:27.951Z,13.70
2017-11-03T12:49:56.197Z,13.90
2017-11-03T12:52:23.673Z,13.80
2017-11-03T12:54:51.154Z,13.90
2017-11-03T12:57:18.634Z,13.60
2017-11-03T12:59:46.133Z,13.60
2017-11-03T13:02:13.603Z,13.60
2017-11-03T13:04:41.109Z,13.60
2017-11-03T13:07:08.631Z,13.80
2017-11-03T13:09:36.935Z,13.90
2017-11-03T13:12:04.427Z,13.80
2017-11-03T13:14:31.908Z,13.90
2017-11-03T13:16:59.388Z,13.90
2017-11-03T13:19:26.903Z,14.00
2017-11-03T13:21:54.367Z,14.00
2017-11-03T13:24:21.857Z,14.00
2017-11-03T13:26:50.244Z,13.80
2017-11-03T13:29:17.727Z,13.70
2017-11-03T13:31:45.206Z,13.60
2017-11-03T13:34:12.695Z,13.60
2017-11-03T13:36:40.950Z,13.70
2017-11-03T13:39:09.201Z,13.60
2017-11-03T13:41:36.683Z,13.60
2017-11-03T13:44:04.160Z,13.70
2017-11-03T13:46:33.071Z,13.90
2017-11-03T13:49:00.587Z,13.90
2017-11-03T13:51:28.050Z,13.90
2017-11-03T13:53:55.527Z,13.90
2017-11-03T13:56:23.003Z,13.90
2017-11-03T13:58:50.475Z,13.80
2017-11-03T14:01:17.956Z,13.70
2017-11-03T14:03:45.419Z,13.80
2017-11-03T14:06:12.915Z,13.80
2017-11-03T14:08:41.161Z,13.90
2017-11-03T14:11:08.615Z,13.90
2017-11-03T14:13:36.111Z,13.90
2017-11-03T14:16:03.576Z,13.90
2017-11-03T14:18:31.039Z,13.90
2017-11-03T14:20:58.516Z,13.90
2017-11-03T14:23:25.987Z,13.90
2017-11-03T14:25:53.477Z,13.80
2017-11-03T14:28:21.709Z,13.70
2017-11-03T14:30:49.179Z,13.70
2017-11-03T14:33:16.658Z,13.70
2017-11-03T14:35:44.925Z,13.60
2017-11-03T14:38:12.387Z,13.50
2017-11-03T14:40:40.643Z,13.30
2017-11-03T14:43:08.123Z,13.30
2017-11-03T14:45:36.392Z,13.20
2017-11-03T14:48:04.627Z,13.20
2017-11-03T14:50:32.094Z,13.10
2017-11-03T14:52:59.579Z,13.10
2017-11-03T14:55:27.816Z,13.00
2017-11-03T14:57:55.312Z,13.00
2017-11-03T15:00:23.547Z,13.00
2017-11-03T15:02:51.018Z,13.00
2017-11-03T15:05:18.502Z,12.90
2017-11-03T15:07:46.739Z,12.80
2017-11-03T15:10:14.224Z,12.80
2017-11-03T15:12:41.695Z,12.70
2017-11-03T15:15:09.953Z,12.50
2017-11-03T15:17:37.447Z,12.50
2017-11-03T15:20:04.931Z,12.40
2017-11-03T15:22:32.399Z,12.20
2017-11-03T15:24:59.882Z,12.20
2017-11-03T15:27:27.344Z,12.10
2017-11-03T15:29:55.606Z,11.80
2017-11-03T15:32:23.092Z,11.80
2017-11-03T15:34:51.339Z,11.70
2017-11-03T15:37:18.819Z,11.70
2017-11-03T15:39:47.056Z,11.40
2017-11-03T15:42:14.543Z,11.40
2017-11-03T15:44:42.783Z,11.20
2017-11-03T15:47:10.280Z,11.20
2017-11-03T15:49:38.531Z,11.00
2017-11-03T15:52:06.017Z,10.90
2017-11-03T15:54:34.263Z,10.70
2017-11-03T15:57:03.234Z,10.60
2017-11-03T15:59:30.716Z,10.60
2017-11-03T16:01:58.214Z,10.50
2017-11-03T16:04:25.698Z,10.40
2017-11-03T16:06:53.165Z,10.50
2017-11-03T16:09:20.651Z,10.50
2017-11-03T16:11:48.119Z,10.40
2017-11-03T16:14:16.359Z,9.90
2017-11-03T16:16:43.835Z,9.90
2017-11-03T16:19:11.299Z,9.80
2017-11-03T16:21:39.523Z,9.50
2017-11-03T16:24:07.003Z,9.50
2017-11-03T16:26:34.478Z,9.40
2017-11-03T16:29:01.966Z,9.40
2017-11-03T16:31:29.439Z,9.30
2017-11-03T16:33:56.925Z,9.20
2017-11-03T16:36:24.401Z,9.20
2017-11-03T16:38:51.880Z,9.10
2017-11-03T16:41:20.107Z,9.00
2017-11-03T16:43:47.582Z,9.00
2017-11-03T16:46:15.049Z,8.90
2017-11-03T16:48:42.537Z,8.90
2017-11-03T16:51:09.996Z,8.80
2017-11-03T16:53:37.475Z,8.90
2017-11-03T16:56:04.940Z,8.90
2017-11-03T16:58:32.480Z,8.80
2017-11-03T17:00:59.955Z,8.70
2017-11-03T17:03:27.411Z,8.70
2017-11-03T17:05:54.886Z,8.60
2017-11-03T17:08:22.371Z,8.60
2017-11-03T17:10:50.600Z,8.60
2017-11-03T17:13:18.091Z,8.60
2017-11-03T17:15:45.556Z,8.50
2017-11-03T17:18:13.800Z,8.40
2017-11-03T17:20:41.292Z,8.40
2017-11-03T17:23:09.536Z,8.30
2017-11-03T17:25:37.021Z,8.30
2017-11-03T17:28:04.494Z,8.30
2017-11-03T17:30:32.713Z,8.20
2017-11-03T17:33:00.197Z,8.20
2017-11-03T17:35:27.654Z,8.20
2017-11-03T17:37:56.627Z,8.20
2017-11-03T17:40:24.104Z,8.20
2017-11-03T17:42:51.569Z,8.10
2017-11-03T17:45:19.051Z,8.10
2017-11-03T17:47:46.511Z,8.20
2017-11-03T17:50:13.974Z,8.30
2017-11-03T17:52:41.471Z,8.30
2017-11-03T17:55:08.937Z,8.20
2017-11-03T17:57:36.408Z,8.20
2017-11-03T18:00:04.673Z,8.50
2017-11-03T18:02:33.634Z,8.40
2017-11-03T18:05:01.109Z,8.50
2017-11-03T18:07:28.576Z,8.50
2017-11-03T18:09:56.072Z,8.50
2017-11-03T18:12:23.559Z,8.50
2017-11-03T18:14:51.024Z,8.50
2017-11-03T18:17:18.491Z,8.60
2017-11-03T18:19:45.980Z,8.60
2017-11-03T18:22:14.203Z,8.70
2017-11-03T18:24:41.663Z,8.70
2017-11-03T18:27:09.147Z,8.70
2017-11-03T18:29:36.613Z,8.80
2017-11-03T18:32:04.082Z,8.90
2017-11-03T18:34:32.312Z,9.00
2017-11-03T18:36:59.805Z,9.00
2017-11-03T18:39:28.048Z,9.00
2017-11-03T18:41:55.533Z,9.00
2017-11-03T18:44:23.009Z,9.00
2017-11-03T18:46:51.255Z,9.10
2017-11-03T18:49:19.509Z,9.20
2017-11-03T18:51:46.986Z,9.20
2017-11-03T18:54:14.473Z,9.20
2017-11-03T18:56:41.944Z,9.20
2017-11-03T18:59:09.413Z,9.10
2017-11-03T19:01:36.898Z,9.10
2017-11-03T19:04:04.374Z,9.10
2017-11-03T19:06:32.609Z,9.10
2017-11-03T19:09:00.088Z,9.00
2017-11-03T19:11:27.541Z,9.10
2017-11-03T19:13:55.004Z,9.00
2017-11-03T19:16:22.493Z,9.10
2017-11-03T19:18:50.725Z,9.20
2017-11-03T19:21:18.210Z,9.20
2017-11-03T19:23:46.443Z,9.10
2017-11-03T19:26:13.919Z,9.10
2017-11-03T19:28:41.399Z,9.10
2017-11-03T19:31:09.648Z,8.90
2017-11-03T19:33:37.150Z,8.90
2017-11-03T19:36:05.403Z,8.90
2017-11-03T19:38:33.655Z,8.70
2017-11-03T19:41:01.146Z,8.70
2017-11-03T19:43:29.371Z,8.40
2017-11-03T19:45:56.870Z,8.40
2017-11-03T19:48:25.124Z,8.10
2017-11-03T19:50:52.606Z,8.10
2017-11-03T19:53:20.852Z,8.00
2017-11-03T19:55:48.321Z,8.00
2017-11-03T19:58:15.828Z,7.90
2017-11-03T20:00:43.300Z,7.80
2017-11-03T20:03:10.766Z,7.70
2017-11-03T20:05:38.251Z,7.70
2017-11-03T20:08:05.729Z,7.60
2017-11-03T20:10:33.969Z,7.40
2017-11-03T20:13:01.467Z,7.40
2017-11-03T20:15:28.948Z,7.30
2017-11-03T20:17:57.284Z,7.30
2017-11-03T20:20:25.600Z,7.20
2017-11-03T20:22:53.097Z,7.20
2017-11-03T20:25:20.572Z,7.10
2017-11-03T20:27:48.837Z,6.90
2017-11-03T20:30:17.080Z,6.80
2017-11-03T20:32:44.549Z,6.80
2017-11-03T20:35:12.049Z,6.80
2017-11-03T20:37:40.285Z,6.80
2017-11-03T20:40:08.650Z,6.80
2017-11-03T20:42:36.144Z,6.80
2017-11-03T20:45:04.072Z,6.70
2017-11-03T20:47:31.560Z,6.80
2017-11-03T20:49:59.067Z,7.00
2017-11-03T20:52:26.544Z,7.10
2017-11-03T20:54:54.038Z,7.20
2017-11-03T20:57:21.500Z,7.20
2017-11-03T20:59:49.741Z,7.20
2017-11-03T21:02:17.234Z,7.20
2017-11-03T21:04:45.476Z,7.30
2017-11-03T21:07:12.944Z,7.20
2017-11-03T21:09:40.429Z,7.20
2017-11-03T21:12:08.654Z,7.20
2017-11-03T21:14:36.135Z,7.30
2017-11-03T21:17:03.615Z,7.30
2017-11-03T21:19:31.863Z,7.20
2017-11-03T21:21:59.348Z,7.20
2017-11-03T21:24:27.572Z,7.10
2017-11-03T21:26:55.073Z,7.10
2017-11-03T21:29:23.308Z,7.10
2017-11-03T21:31:50.775Z,7.10
2017-11-03T21:34:18.258Z,7.20
2017-11-03T21:36:46.498Z,7.10
2017-11-03T21:39:13.983Z,7.10
2017-11-03T21:41:41.458Z,7.10
2017-11-03T21:44:08.928Z,7.00
2017-11-03T21:46:36.419Z,6.80
2017-11-03T21:49:03.885Z,6.70
2017-11-03T21:51:31.380Z,6.50
2017-11-03T21:53:59.684Z,6.30
2017-11-03T21:56:27.143Z,6.30
2017-11-03T21:58:54.644Z,6.20
2017-11-03T22:01:23.631Z,6.10
2017-11-03T22:03:51.101Z,6.10
2017-11-03T22:06:18.587Z,6.00
2017-11-03T22:08:46.078Z,6.00
2017-11-03T22:11:13.555Z,5.90
2017-11-03T22:13:41.038Z,5.80
2017-11-03T22:16:09.267Z,5.80
2017-11-03T22:18:36.755Z,5.80
2017-11-03T22:21:05.012Z,5.60
2017-11-03T22:23:32.479Z,5.60
2017-11-03T22:25:59.968Z,5.60
2017-11-03T22:28:28.196Z,5.50
2017-11-03T22:30:55.674Z,5.50
2017-11-03T22:33:23.149Z,5.60
2017-11-03T22:35:51.379Z,5.70
2017-11-03T22:38:18.864Z,5.70
2017-11-03T22:40:47.096Z,5.90
2017-11-03T22:43:14.575Z,5.80
2017-11-03T22:45:42.044Z,5.80
2017-11-03T22:48:09.524Z,5.80
2017-11-03T22:50:37.788Z,5.60
2017-11-03T22:53:05.264Z,5.60
2017-11-03T22:55:33.501Z,5.80
2017-11-03T22:58:00.967Z,5.80
2017-11-03T23:00:28.435Z,5.80
2017-11-03T23:02:56.687Z,5.80
2017-11-03T23:05:24.151Z,5.70
2017-11-03T23:07:51.620Z,5.80
2017-11-03T23:10:19.873Z,5.70
2017-11-03T23:12:47.363Z,5.70
2017-11-03T23:15:15.607Z,5.50
2017-11-03T23:17:43.080Z,5.50
2017-11-03T23:20:10.560Z,5.50
2017-11-03T23:22:38.060Z,5.50
2017-11-03T23:25:05.531Z,5.50
2017-11-03T23:27:33.016Z,5.60
2017-11-03T23:30:00.484Z,5.50
2017-11-03T23:32:28.739Z,5.60
2017-11-03T23:34:56.237Z,5.60
2017-11-03T23:37:23.696Z,5.60
2017-11-03T23:39:51.175Z,5.60
2017-11-03T23:42:18.643Z,5.60
2017-11-03T23:44:46.131Z,5.50
2017-11-03T23:47:14.364Z,5.60
2017-11-03T23:49:41.844Z,5.60
2017-11-03T23:52:09.311Z,5.50
2017-11-03T23:54:36.791Z,5.50
2017-11-03T23:57:04.276Z,5.60
2017-11-03T23:59:31.748Z,5.60
